sensor_id;sensor_type;location;lat;lon;timestamp;P1;durP1;ratioP1;P2;durP2;ratioP2
71566;SDS011;59403;47.456;19.120;2023-08-21T00:01:30;41.70;;;34.85;;
71566;SDS011;59403;47.456;19.120;2023-08-21T00:03:57;34.75;;;28.45;;
71566;SDS011;59403;47.456;19.120;2023-08-21T00:06:24;32.60;;;28.33;;
71566;SDS011;59403;47.456;19.120;2023-08-21T00:08:51;31.77;;;26.17;;
71566;SDS011;59403;47.456;19.120;2023-08-21T00:11:18;26.20;;;22.60;;
71566;SDS011;59403;47.456;19.120;2023-08-21T00:13:45;25.88;;;22.60;;
71566;SDS011;59403;47.456;19.120;2023-08-21T00:16:13;24.83;;;21.85;;
71566;SDS011;59403;47.456;19.120;2023-08-21T00:18:42;26.83;;;23.92;;
71566;SDS011;59403;47.456;19.120;2023-08-21T00:21:08;26.83;;;23.57;;
71566;SDS011;59403;47.456;19.120;2023-08-21T00:23:36;26.12;;;21.90;;
71566;SDS011;59403;47.456;19.120;2023-08-21T00:26:03;26.00;;;21.60;;
71566;SDS011;59403;47.456;19.120;2023-08-21T00:28:30;22.65;;;20.17;;
71566;SDS011;59403;47.456;19.120;2023-08-21T00:31:00;24.85;;;21.12;;
71566;SDS011;59403;47.456;19.120;2023-08-21T00:33:27;25.73;;;21.30;;
71566;SDS011;59403;47.456;19.120;2023-08-21T00:35:56;24.77;;;20.52;;
71566;SDS011;59403;47.456;19.120;2023-08-21T00:38:23;25.37;;;20.58;;
71566;SDS011;59403;47.456;19.120;2023-08-21T00:40:51;20.35;;;17.35;;
71566;SDS011;59403;47.456;19.120;2023-08-21T00:43:18;19.40;;;17.35;;
71566;SDS011;59403;47.456;19.120;2023-08-21T00:45:46;21.60;;;17.33;;
71566;SDS011;59403;47.456;19.120;2023-08-21T00:48:14;18.83;;;16.80;;
71566;SDS011;59403;47.456;19.120;2023-08-21T00:50:41;19.35;;;17.30;;
71566;SDS011;59403;47.456;19.120;2023-08-21T00:53:10;18.55;;;15.95;;
71566;SDS011;59403;47.456;19.120;2023-08-21T00:55:38;19.25;;;16.17;;
71566;SDS011;59403;47.456;19.120;2023-08-21T00:58:05;19.77;;;16.00;;
71566;SDS011;59403;47.456;19.120;2023-08-21T01:00:32;16.83;;;15.02;;
71566;SDS011;59403;47.456;19.120;2023-08-21T01:05:44;17.83;;;15.25;;
71566;SDS011;59403;47.456;19.120;2023-08-21T01:08:14;17.77;;;15.85;;
71566;SDS011;59403;47.456;19.120;2023-08-21T01:10:50;16.77;;;14.50;;
71566;SDS011;59403;47.456;19.120;2023-08-21T01:13:26;15.95;;;13.85;;
71566;SDS011;59403;47.456;19.120;2023-08-21T01:16:01;18.87;;;14.25;;
71566;SDS011;59403;47.456;19.120;2023-08-21T01:18:31;15.30;;;13.27;;
71566;SDS011;59403;47.456;19.120;2023-08-21T01:21:01;17.52;;;14.50;;
71566;SDS011;59403;47.456;19.120;2023-08-21T01:23:31;15.57;;;13.97;;
71566;SDS011;59403;47.456;19.120;2023-08-21T01:25:59;15.48;;;13.23;;
71566;SDS011;59403;47.456;19.120;2023-08-21T01:28:26;14.85;;;13.30;;
71566;SDS011;59403;47.456;19.120;2023-08-21T01:30:57;13.98;;;12.57;;
71566;SDS011;59403;47.456;19.120;2023-08-21T01:33:28;16.25;;;13.45;;
71566;SDS011;59403;47.456;19.120;2023-08-21T01:35:59;14.73;;;13.17;;
71566;SDS011;59403;47.456;19.120;2023-08-21T01:38:32;15.73;;;14.00;;
71566;SDS011;59403;47.456;19.120;2023-08-21T01:41:00;16.95;;;13.55;;
71566;SDS011;59403;47.456;19.120;2023-08-21T01:43:27;14.93;;;13.30;;
71566;SDS011;59403;47.456;19.120;2023-08-21T01:45:54;15.30;;;12.95;;
71566;SDS011;59403;47.456;19.120;2023-08-21T01:48:22;13.97;;;12.50;;
71566;SDS011;59403;47.456;19.120;2023-08-21T01:50:49;15.13;;;13.52;;
71566;SDS011;59403;47.456;19.120;2023-08-21T01:53:16;15.63;;;12.73;;
71566;SDS011;59403;47.456;19.120;2023-08-21T01:55:44;17.70;;;13.93;;
71566;SDS011;59403;47.456;19.120;2023-08-21T01:58:11;15.60;;;12.90;;
71566;SDS011;59403;47.456;19.120;2023-08-21T02:00:38;17.43;;;12.83;;
71566;SDS011;59403;47.456;19.120;2023-08-21T02:03:05;14.32;;;12.63;;
71566;SDS011;59403;47.456;19.120;2023-08-21T02:05:36;14.57;;;12.63;;
71566;SDS011;59403;47.456;19.120;2023-08-21T02:08:04;14.30;;;12.80;;
71566;SDS011;59403;47.456;19.120;2023-08-21T02:10:32;15.50;;;13.93;;
71566;SDS011;59403;47.456;19.120;2023-08-21T02:13:00;15.17;;;13.03;;
71566;SDS011;59403;47.456;19.120;2023-08-21T02:15:27;14.18;;;12.68;;
71566;SDS011;59403;47.456;19.120;2023-08-21T02:17:54;14.80;;;13.20;;
71566;SDS011;59403;47.456;19.120;2023-08-21T02:20:21;16.77;;;13.38;;
71566;SDS011;59403;47.456;19.120;2023-08-21T02:22:48;14.55;;;13.05;;
71566;SDS011;59403;47.456;19.120;2023-08-21T02:25:15;16.00;;;13.13;;
71566;SDS011;59403;47.456;19.120;2023-08-21T02:27:42;14.20;;;12.80;;
71566;SDS011;59403;47.456;19.120;2023-08-21T02:30:11;15.82;;;13.80;;
71566;SDS011;59403;47.456;19.120;2023-08-21T02:32:38;14.63;;;12.60;;
71566;SDS011;59403;47.456;19.120;2023-08-21T02:35:05;14.27;;;12.73;;
71566;SDS011;59403;47.456;19.120;2023-08-21T02:37:33;15.33;;;13.83;;
71566;SDS011;59403;47.456;19.120;2023-08-21T02:40:04;15.43;;;13.75;;
71566;SDS011;59403;47.456;19.120;2023-08-21T02:42:33;14.68;;;12.50;;
71566;SDS011;59403;47.456;19.120;2023-08-21T02:45:00;16.60;;;13.20;;
71566;SDS011;59403;47.456;19.120;2023-08-21T02:47:30;15.13;;;13.62;;
71566;SDS011;59403;47.456;19.120;2023-08-21T02:49:57;14.93;;;13.27;;
71566;SDS011;59403;47.456;19.120;2023-08-21T02:52:24;14.95;;;13.35;;
71566;SDS011;59403;47.456;19.120;2023-08-21T02:54:51;14.82;;;13.23;;
71566;SDS011;59403;47.456;19.120;2023-08-21T02:57:18;15.90;;;13.48;;
71566;SDS011;59403;47.456;19.120;2023-08-21T02:59:45;15.57;;;13.55;;
71566;SDS011;59403;47.456;19.120;2023-08-21T03:02:12;16.03;;;14.33;;
71566;SDS011;59403;47.456;19.120;2023-08-21T03:04:40;14.98;;;13.13;;
71566;SDS011;59403;47.456;19.120;2023-08-21T03:07:07;20.00;;;13.80;;
71566;SDS011;59403;47.456;19.120;2023-08-21T03:09:34;15.52;;;13.48;;
71566;SDS011;59403;47.456;19.120;2023-08-21T03:12:02;15.13;;;13.55;;
71566;SDS011;59403;47.456;19.120;2023-08-21T03:14:29;15.20;;;13.57;;
71566;SDS011;59403;47.456;19.120;2023-08-21T03:16:57;15.57;;;13.60;;
71566;SDS011;59403;47.456;19.120;2023-08-21T03:19:24;15.10;;;13.23;;
71566;SDS011;59403;47.456;19.120;2023-08-21T03:21:52;16.52;;;13.45;;
71566;SDS011;59403;47.456;19.120;2023-08-21T03:24:19;16.62;;;13.90;;
71566;SDS011;59403;47.456;19.120;2023-08-21T03:26:47;15.43;;;13.80;;
71566;SDS011;59403;47.456;19.120;2023-08-21T03:29:14;16.92;;;14.10;;
71566;SDS011;59403;47.456;19.120;2023-08-21T03:31:41;15.77;;;13.70;;
71566;SDS011;59403;47.456;19.120;2023-08-21T03:34:08;15.23;;;13.52;;
71566;SDS011;59403;47.456;19.120;2023-08-21T03:36:35;18.73;;;14.18;;
71566;SDS011;59403;47.456;19.120;2023-08-21T03:39:05;17.20;;;13.57;;
71566;SDS011;59403;47.456;19.120;2023-08-21T03:41:32;18.02;;;14.10;;
71566;SDS011;59403;47.456;19.120;2023-08-21T03:43:59;16.52;;;13.18;;
71566;SDS011;59403;47.456;19.120;2023-08-21T03:46:25;15.52;;;13.57;;
71566;SDS011;59403;47.456;19.120;2023-08-21T03:48:52;15.00;;;13.38;;
71566;SDS011;59403;47.456;19.120;2023-08-21T03:51:19;16.27;;;13.67;;
71566;SDS011;59403;47.456;19.120;2023-08-21T03:53:46;18.33;;;13.95;;
71566;SDS011;59403;47.456;19.120;2023-08-21T03:56:15;15.50;;;13.35;;
71566;SDS011;59403;47.456;19.120;2023-08-21T03:58:42;18.73;;;12.68;;
71566;SDS011;59403;47.456;19.120;2023-08-21T04:01:09;16.10;;;14.20;;
71566;SDS011;59403;47.456;19.120;2023-08-21T04:03:35;16.87;;;13.37;;
71566;SDS011;59403;47.456;19.120;2023-08-21T04:06:03;18.37;;;13.40;;
71566;SDS011;59403;47.456;19.120;2023-08-21T04:08:30;17.67;;;13.85;;
71566;SDS011;59403;47.456;19.120;2023-08-21T04:10:57;16.35;;;13.62;;
71566;SDS011;59403;47.456;19.120;2023-08-21T04:13:27;15.90;;;13.60;;
71566;SDS011;59403;47.456;19.120;2023-08-21T04:15:54;16.20;;;13.57;;
71566;SDS011;59403;47.456;19.120;2023-08-21T04:18:21;15.32;;;13.25;;
71566;SDS011;59403;47.456;19.120;2023-08-21T04:20:48;16.62;;;14.43;;
71566;SDS011;59403;47.456;19.120;2023-08-21T04:23:15;15.88;;;14.00;;
71566;SDS011;59403;47.456;19.120;2023-08-21T04:25:43;17.95;;;15.07;;
71566;SDS011;59403;47.456;19.120;2023-08-21T04:28:09;15.07;;;13.47;;
71566;SDS011;59403;47.456;19.120;2023-08-21T04:30:39;17.85;;;13.80;;
71566;SDS011;59403;47.456;19.120;2023-08-21T04:33:06;15.88;;;14.20;;
71566;SDS011;59403;47.456;19.120;2023-08-21T04:35:36;17.55;;;14.98;;
71566;SDS011;59403;47.456;19.120;2023-08-21T04:38:03;15.98;;;13.70;;
71566;SDS011;59403;47.456;19.120;2023-08-21T04:40:30;16.33;;;14.43;;
71566;SDS011;59403;47.456;19.120;2023-08-21T04:42:58;16.83;;;14.20;;
71566;SDS011;59403;47.456;19.120;2023-08-21T04:45:24;16.98;;;14.70;;
71566;SDS011;59403;47.456;19.120;2023-08-21T04:47:53;16.75;;;13.75;;
71566;SDS011;59403;47.456;19.120;2023-08-21T04:50:20;15.45;;;13.88;;
71566;SDS011;59403;47.456;19.120;2023-08-21T04:52:47;16.03;;;13.63;;
71566;SDS011;59403;47.456;19.120;2023-08-21T04:55:15;16.27;;;12.95;;
71566;SDS011;59403;47.456;19.120;2023-08-21T04:57:42;15.20;;;13.60;;
71566;SDS011;59403;47.456;19.120;2023-08-21T05:00:09;18.35;;;13.82;;
71566;SDS011;59403;47.456;19.120;2023-08-21T05:02:37;17.00;;;13.50;;
71566;SDS011;59403;47.456;19.120;2023-08-21T05:05:06;17.37;;;13.13;;
71566;SDS011;59403;47.456;19.120;2023-08-21T05:07:34;20.45;;;13.05;;
71566;SDS011;59403;47.456;19.120;2023-08-21T05:10:01;14.63;;;13.18;;
71566;SDS011;59403;47.456;19.120;2023-08-21T05:12:28;18.52;;;13.62;;
71566;SDS011;59403;47.456;19.120;2023-08-21T05:14:55;23.35;;;14.70;;
71566;SDS011;59403;47.456;19.120;2023-08-21T05:17:21;15.40;;;12.97;;
71566;SDS011;59403;47.456;19.120;2023-08-21T05:19:50;16.25;;;13.65;;
71566;SDS011;59403;47.456;19.120;2023-08-21T05:22:19;15.80;;;13.70;;
71566;SDS011;59403;47.456;19.120;2023-08-21T05:24:49;16.17;;;13.13;;
71566;SDS011;59403;47.456;19.120;2023-08-21T05:27:16;16.45;;;13.50;;
71566;SDS011;59403;47.456;19.120;2023-08-21T05:29:43;16.73;;;12.60;;
71566;SDS011;59403;47.456;19.120;2023-08-21T05:32:10;16.95;;;13.62;;
71566;SDS011;59403;47.456;19.120;2023-08-21T05:40:29;21.05;;;13.52;;
71566;SDS011;59403;47.456;19.120;2023-08-21T05:42:58;14.13;;;12.53;;
71566;SDS011;59403;47.456;19.120;2023-08-21T05:45:34;15.23;;;12.68;;
71566;SDS011;59403;47.456;19.120;2023-08-21T05:48:01;14.23;;;12.77;;
71566;SDS011;59403;47.456;19.120;2023-08-21T05:50:31;15.15;;;12.57;;
71566;SDS011;59403;47.456;19.120;2023-08-21T05:52:58;24.23;;;19.10;;
71566;SDS011;59403;47.456;19.120;2023-08-21T05:55:26;34.07;;;28.40;;
71566;SDS011;59403;47.456;19.120;2023-08-21T05:57:57;17.58;;;14.82;;
71566;SDS011;59403;47.456;19.120;2023-08-21T06:00:24;16.75;;;12.75;;
71566;SDS011;59403;47.456;19.120;2023-08-21T06:02:51;15.05;;;13.23;;
71566;SDS011;59403;47.456;19.120;2023-08-21T06:05:18;14.40;;;12.95;;
71566;SDS011;59403;47.456;19.120;2023-08-21T06:07:45;15.93;;;12.30;;
71566;SDS011;59403;47.456;19.120;2023-08-21T06:10:12;14.73;;;12.65;;
71566;SDS011;59403;47.456;19.120;2023-08-21T06:12:42;15.80;;;12.32;;
71566;SDS011;59403;47.456;19.120;2023-08-21T06:15:14;16.08;;;13.27;;
71566;SDS011;59403;47.456;19.120;2023-08-21T06:17:41;15.50;;;13.10;;
71566;SDS011;59403;47.456;19.120;2023-08-21T06:20:08;14.23;;;12.37;;
71566;SDS011;59403;47.456;19.120;2023-08-21T06:22:36;20.48;;;12.70;;
71566;SDS011;59403;47.456;19.120;2023-08-21T06:25:03;16.65;;;12.55;;
71566;SDS011;59403;47.456;19.120;2023-08-21T06:27:30;13.48;;;12.10;;
71566;SDS011;59403;47.456;19.120;2023-08-21T06:29:57;14.98;;;12.75;;
71566;SDS011;59403;47.456;19.120;2023-08-21T06:32:26;13.57;;;12.17;;
71566;SDS011;59403;47.456;19.120;2023-08-21T06:34:53;14.73;;;12.43;;
71566;SDS011;59403;47.456;19.120;2023-08-21T06:37:20;14.25;;;12.75;;
71566;SDS011;59403;47.456;19.120;2023-08-21T06:39:46;14.23;;;12.55;;
71566;SDS011;59403;47.456;19.120;2023-08-21T06:42:14;14.25;;;12.75;;
71566;SDS011;59403;47.456;19.120;2023-08-21T06:44:41;13.57;;;12.13;;
71566;SDS011;59403;47.456;19.120;2023-08-21T06:47:07;16.70;;;12.30;;
71566;SDS011;59403;47.456;19.120;2023-08-21T06:49:36;14.52;;;13.02;;
71566;SDS011;59403;47.456;19.120;2023-08-21T06:52:03;14.00;;;12.57;;
71566;SDS011;59403;47.456;19.120;2023-08-21T06:54:30;14.98;;;12.50;;
71566;SDS011;59403;47.456;19.120;2023-08-21T06:56:57;13.33;;;11.93;;
71566;SDS011;59403;47.456;19.120;2023-08-21T06:59:24;13.52;;;12.07;;
71566;SDS011;59403;47.456;19.120;2023-08-21T07:01:51;14.18;;;12.37;;
71566;SDS011;59403;47.456;19.120;2023-08-21T07:04:18;14.63;;;12.60;;
71566;SDS011;59403;47.456;19.120;2023-08-21T07:06:47;14.00;;;12.40;;
71566;SDS011;59403;47.456;19.120;2023-08-21T07:09:14;13.90;;;12.60;;
71566;SDS011;59403;47.456;19.120;2023-08-21T07:11:41;14.60;;;13.15;;
71566;SDS011;59403;47.456;19.120;2023-08-21T07:14:08;15.00;;;13.50;;
71566;SDS011;59403;47.456;19.120;2023-08-21T07:16:35;13.95;;;12.55;;
71566;SDS011;59403;47.456;19.120;2023-08-21T07:19:02;14.07;;;12.65;;
71566;SDS011;59403;47.456;19.120;2023-08-21T07:21:29;14.87;;;12.53;;
71566;SDS011;59403;47.456;19.120;2023-08-21T07:23:57;15.88;;;13.45;;
71566;SDS011;59403;47.456;19.120;2023-08-21T07:26:24;15.13;;;13.52;;
71566;SDS011;59403;47.456;19.120;2023-08-21T07:28:51;14.65;;;13.15;;
71566;SDS011;59403;47.456;19.120;2023-08-21T07:31:18;13.95;;;12.60;;
71566;SDS011;59403;47.456;19.120;2023-08-21T07:33:45;13.97;;;12.47;;
71566;SDS011;59403;47.456;19.120;2023-08-21T07:36:12;14.75;;;12.98;;
71566;SDS011;59403;47.456;19.120;2023-08-21T07:38:42;14.82;;;13.07;;
71566;SDS011;59403;47.456;19.120;2023-08-21T07:41:11;15.93;;;13.32;;
71566;SDS011;59403;47.456;19.120;2023-08-21T07:43:39;14.38;;;12.68;;
71566;SDS011;59403;47.456;19.120;2023-08-21T07:46:09;14.13;;;12.67;;
71566;SDS011;59403;47.456;19.120;2023-08-21T07:48:38;17.25;;;13.50;;
71566;SDS011;59403;47.456;19.120;2023-08-21T07:51:05;13.50;;;12.10;;
71566;SDS011;59403;47.456;19.120;2023-08-21T07:53:33;16.17;;;12.75;;
71566;SDS011;59403;47.456;19.120;2023-08-21T07:56:00;16.05;;;13.13;;
71566;SDS011;59403;47.456;19.120;2023-08-21T07:58:29;15.67;;;13.97;;
71566;SDS011;59403;47.456;19.120;2023-08-21T08:00:56;15.32;;;13.55;;
71566;SDS011;59403;47.456;19.120;2023-08-21T08:03:24;14.50;;;13.00;;
71566;SDS011;59403;47.456;19.120;2023-08-21T08:05:51;13.93;;;12.52;;
71566;SDS011;59403;47.456;19.120;2023-08-21T08:08:18;14.45;;;13.05;;
71566;SDS011;59403;47.456;19.120;2023-08-21T08:10:47;14.67;;;13.10;;
71566;SDS011;59403;47.456;19.120;2023-08-21T08:13:17;13.98;;;12.55;;
71566;SDS011;59403;47.456;19.120;2023-08-21T08:15:50;14.32;;;13.02;;
71566;SDS011;59403;47.456;19.120;2023-08-21T08:18:20;13.82;;;12.43;;
71566;SDS011;59403;47.456;19.120;2023-08-21T08:20:49;15.38;;;13.05;;
71566;SDS011;59403;47.456;19.120;2023-08-21T08:23:21;14.77;;;13.00;;
71566;SDS011;59403;47.456;19.120;2023-08-21T08:25:48;14.87;;;12.63;;
71566;SDS011;59403;47.456;19.120;2023-08-21T08:28:17;14.10;;;12.60;;
71566;SDS011;59403;47.456;19.120;2023-08-21T08:30:46;14.02;;;12.63;;
71566;SDS011;59403;47.456;19.120;2023-08-21T08:33:14;13.90;;;12.45;;
71566;SDS011;59403;47.456;19.120;2023-08-21T08:35:41;14.53;;;13.23;;
71566;SDS011;59403;47.456;19.120;2023-08-21T10:00:57;12.93;;;11.83;;
71566;SDS011;59403;47.456;19.120;2023-08-21T10:03:25;13.38;;;12.05;;
71566;SDS011;59403;47.456;19.120;2023-08-21T10:05:54;12.20;;;11.00;;
71566;SDS011;59403;47.456;19.120;2023-08-21T10:08:24;13.10;;;11.85;;
71566;SDS011;59403;47.456;19.120;2023-08-21T10:10:52;12.67;;;11.60;;
71566;SDS011;59403;47.456;19.120;2023-08-21T10:13:20;13.10;;;11.80;;
71566;SDS011;59403;47.456;19.120;2023-08-21T10:15:47;12.50;;;11.35;;
71566;SDS011;59403;47.456;19.120;2023-08-21T10:18:19;14.13;;;11.57;;
71566;SDS011;59403;47.456;19.120;2023-08-21T10:20:48;12.55;;;11.30;;
71566;SDS011;59403;47.456;19.120;2023-08-21T10:23:25;12.60;;;11.33;;
71566;SDS011;59403;47.456;19.120;2023-08-21T10:25:56;12.75;;;11.63;;
71566;SDS011;59403;47.456;19.120;2023-08-21T10:28:24;12.85;;;10.88;;
71566;SDS011;59403;47.456;19.120;2023-08-21T10:30:51;12.77;;;11.57;;
71566;SDS011;59403;47.456;19.120;2023-08-21T10:33:19;12.20;;;11.15;;
71566;SDS011;59403;47.456;19.120;2023-08-21T10:36:12;12.17;;;11.00;;
71566;SDS011;59403;47.456;19.120;2023-08-21T10:41:37;12.52;;;11.43;;
71566;SDS011;59403;47.456;19.120;2023-08-21T10:47:48;11.48;;;10.48;;
71566;SDS011;59403;47.456;19.120;2023-08-21T10:50:21;12.27;;;11.07;;
71566;SDS011;59403;47.456;19.120;2023-08-21T10:53:05;11.88;;;10.73;;
71566;SDS011;59403;47.456;19.120;2023-08-21T10:55:32;12.70;;;11.40;;
71566;SDS011;59403;47.456;19.120;2023-08-21T10:57:59;12.73;;;11.63;;
71566;SDS011;59403;47.456;19.120;2023-08-21T11:00:26;12.80;;;11.68;;
71566;SDS011;59403;47.456;19.120;2023-08-21T11:02:54;13.17;;;11.87;;
71566;SDS011;59403;47.456;19.120;2023-08-21T11:05:27;12.05;;;10.95;;
71566;SDS011;59403;47.456;19.120;2023-08-21T11:07:54;11.98;;;10.90;;
71566;SDS011;59403;47.456;19.120;2023-08-21T11:10:21;11.73;;;10.27;;
71566;SDS011;59403;47.456;19.120;2023-08-21T11:12:50;12.35;;;11.35;;
71566;SDS011;59403;47.456;19.120;2023-08-21T11:15:21;12.07;;;10.90;;
71566;SDS011;59403;47.456;19.120;2023-08-21T11:17:59;12.55;;;11.30;;
71566;SDS011;59403;47.456;19.120;2023-08-21T11:26:49;12.50;;;11.30;;
71566;SDS011;59403;47.456;19.120;2023-08-21T11:29:18;12.10;;;10.97;;
71566;SDS011;59403;47.456;19.120;2023-08-21T11:31:47;12.10;;;10.80;;
71566;SDS011;59403;47.456;19.120;2023-08-21T11:34:18;12.73;;;11.63;;
71566;SDS011;59403;47.456;19.120;2023-08-21T11:36:45;11.55;;;10.45;;
71566;SDS011;59403;47.456;19.120;2023-08-21T11:39:12;12.25;;;11.07;;
71566;SDS011;59403;47.456;19.120;2023-08-21T11:41:56;12.70;;;11.50;;
71566;SDS011;59403;47.456;19.120;2023-08-21T11:44:24;11.80;;;10.60;;
71566;SDS011;59403;47.456;19.120;2023-08-21T11:46:51;11.93;;;10.82;;
71566;SDS011;59403;47.456;19.120;2023-08-21T11:49:19;11.98;;;10.77;;
71566;SDS011;59403;47.456;19.120;2023-08-21T11:54:32;11.40;;;10.40;;
71566;SDS011;59403;47.456;19.120;2023-08-21T11:57:09;11.53;;;10.47;;
71566;SDS011;59403;47.456;19.120;2023-08-21T11:59:39;11.45;;;10.45;;
71566;SDS011;59403;47.456;19.120;2023-08-21T12:02:13;11.80;;;10.65;;
71566;SDS011;59403;47.456;19.120;2023-08-21T12:04:49;11.77;;;10.57;;
71566;SDS011;59403;47.456;19.120;2023-08-21T12:07:18;12.27;;;11.15;;
71566;SDS011;59403;47.456;19.120;2023-08-21T12:09:46;11.70;;;10.03;;
71566;SDS011;59403;47.456;19.120;2023-08-21T12:12:16;11.32;;;10.23;;
71566;SDS011;59403;47.456;19.120;2023-08-21T12:14:43;11.50;;;10.40;;
71566;SDS011;59403;47.456;19.120;2023-08-21T12:17:10;11.73;;;10.63;;
71566;SDS011;59403;47.456;19.120;2023-08-21T12:19:37;11.65;;;10.48;;
71566;SDS011;59403;47.456;19.120;2023-08-21T12:22:04;11.80;;;10.70;;
71566;SDS011;59403;47.456;19.120;2023-08-21T12:24:31;12.57;;;11.38;;
71566;SDS011;59403;47.456;19.120;2023-08-21T12:26:58;12.55;;;11.38;;
71566;SDS011;59403;47.456;19.120;2023-08-21T12:29:26;12.05;;;10.85;;
71566;SDS011;59403;47.456;19.120;2023-08-21T12:31:53;12.93;;;10.93;;
71566;SDS011;59403;47.456;19.120;2023-08-21T12:34:26;11.70;;;10.60;;
71566;SDS011;59403;47.456;19.120;2023-08-21T12:37:07;11.88;;;10.82;;
71566;SDS011;59403;47.456;19.120;2023-08-21T12:39:34;11.65;;;10.48;;
71566;SDS011;59403;47.456;19.120;2023-08-21T12:42:01;11.57;;;10.43;;
71566;SDS011;59403;47.456;19.120;2023-08-21T12:44:30;11.93;;;10.82;;
71566;SDS011;59403;47.456;19.120;2023-08-21T12:46:57;11.77;;;10.63;;
71566;SDS011;59403;47.456;19.120;2023-08-21T12:49:24;11.98;;;10.88;;
71566;SDS011;59403;47.456;19.120;2023-08-21T12:51:51;12.77;;;11.45;;
71566;SDS011;59403;47.456;19.120;2023-08-21T12:54:18;13.15;;;11.85;;
71566;SDS011;59403;47.456;19.120;2023-08-21T12:56:45;13.05;;;11.85;;
71566;SDS011;59403;47.456;19.120;2023-08-21T12:59:14;13.60;;;11.80;;
71566;SDS011;59403;47.456;19.120;2023-08-21T13:01:42;12.77;;;11.65;;
71566;SDS011;59403;47.456;19.120;2023-08-21T13:04:09;13.98;;;12.57;;
71566;SDS011;59403;47.456;19.120;2023-08-21T13:06:36;14.40;;;13.07;;
71566;SDS011;59403;47.456;19.120;2023-08-21T13:09:21;13.13;;;11.98;;
71566;SDS011;59403;47.456;19.120;2023-08-21T13:12:01;13.23;;;11.93;;
71566;SDS011;59403;47.456;19.120;2023-08-21T13:14:28;13.90;;;12.60;;
71566;SDS011;59403;47.456;19.120;2023-08-21T13:16:59;14.80;;;12.00;;
71566;SDS011;59403;47.456;19.120;2023-08-21T13:19:26;13.00;;;11.80;;
71566;SDS011;59403;47.456;19.120;2023-08-21T13:21:53;13.52;;;12.15;;
71566;SDS011;59403;47.456;19.120;2023-08-21T13:24:20;12.50;;;11.40;;
71566;SDS011;59403;47.456;19.120;2023-08-21T13:26:47;12.95;;;11.50;;
71566;SDS011;59403;47.456;19.120;2023-08-21T13:29:14;12.32;;;11.18;;
71566;SDS011;59403;47.456;19.120;2023-08-21T13:31:41;13.45;;;12.02;;
71566;SDS011;59403;47.456;19.120;2023-08-21T13:34:10;12.85;;;11.65;;
71566;SDS011;59403;47.456;19.120;2023-08-21T13:36:37;12.83;;;11.37;;
71566;SDS011;59403;47.456;19.120;2023-08-21T13:39:04;11.95;;;10.27;;
71566;SDS011;59403;47.456;19.120;2023-08-21T13:41:32;10.52;;;9.45;;
71566;SDS011;59403;47.456;19.120;2023-08-21T13:43:58;11.10;;;10.00;;
71566;SDS011;59403;47.456;19.120;2023-08-21T13:46:25;11.32;;;10.05;;
71566;SDS011;59403;47.456;19.120;2023-08-21T13:48:52;10.93;;;9.93;;
71566;SDS011;59403;47.456;19.120;2023-08-21T13:51:21;11.02;;;9.40;;
71566;SDS011;59403;47.456;19.120;2023-08-21T13:53:48;10.80;;;9.75;;
71566;SDS011;59403;47.456;19.120;2023-08-21T13:56:15;11.15;;;10.15;;
71566;SDS011;59403;47.456;19.120;2023-08-21T13:58:42;10.73;;;9.68;;
71566;SDS011;59403;47.456;19.120;2023-08-21T14:01:09;10.70;;;9.70;;
71566;SDS011;59403;47.456;19.120;2023-08-21T14:03:39;11.23;;;10.07;;
71566;SDS011;59403;47.456;19.120;2023-08-21T14:12:20;10.68;;;9.68;;
71566;SDS011;59403;47.456;19.120;2023-08-21T14:22:04;12.65;;;9.02;;
71566;SDS011;59403;47.456;19.120;2023-08-21T14:24:32;8.82;;;8.02;;
71566;SDS011;59403;47.456;19.120;2023-08-21T14:26:59;9.10;;;8.20;;
71566;SDS011;59403;47.456;19.120;2023-08-21T14:29:28;10.57;;;7.60;;
71566;SDS011;59403;47.456;19.120;2023-08-21T14:31:57;8.32;;;7.53;;
71566;SDS011;59403;47.456;19.120;2023-08-21T14:34:25;10.73;;;8.65;;
71566;SDS011;59403;47.456;19.120;2023-08-21T14:36:53;9.25;;;8.40;;
71566;SDS011;59403;47.456;19.120;2023-08-21T14:39:21;10.07;;;8.35;;
71566;SDS011;59403;47.456;19.120;2023-08-21T14:41:53;12.13;;;8.87;;
71566;SDS011;59403;47.456;19.120;2023-08-21T14:44:21;9.23;;;8.43;;
71566;SDS011;59403;47.456;19.120;2023-08-21T14:46:49;11.95;;;7.75;;
71566;SDS011;59403;47.456;19.120;2023-08-21T14:49:17;9.65;;;8.75;;
71566;SDS011;59403;47.456;19.120;2023-08-21T14:51:46;8.10;;;7.40;;
71566;SDS011;59403;47.456;19.120;2023-08-21T14:54:14;8.27;;;7.57;;
71566;SDS011;59403;47.456;19.120;2023-08-21T14:56:41;7.70;;;7.00;;
71566;SDS011;59403;47.456;19.120;2023-08-21T14:59:09;8.20;;;7.40;;
71566;SDS011;59403;47.456;19.120;2023-08-21T15:01:36;8.35;;;7.55;;
71566;SDS011;59403;47.456;19.120;2023-08-21T15:04:05;10.57;;;8.70;;
71566;SDS011;59403;47.456;19.120;2023-08-21T15:06:32;8.37;;;7.57;;
71566;SDS011;59403;47.456;19.120;2023-08-21T15:08:59;7.87;;;7.07;;
71566;SDS011;59403;47.456;19.120;2023-08-21T15:11:26;8.40;;;7.60;;
71566;SDS011;59403;47.456;19.120;2023-08-21T15:13:53;7.62;;;6.93;;
71566;SDS011;59403;47.456;19.120;2023-08-21T15:16:21;8.20;;;7.57;;
71566;SDS011;59403;47.456;19.120;2023-08-21T15:18:50;7.90;;;7.10;;
71566;SDS011;59403;47.456;19.120;2023-08-21T15:21:19;7.70;;;7.00;;
71566;SDS011;59403;47.456;19.120;2023-08-21T15:23:54;9.25;;;8.35;;
71566;SDS011;59403;47.456;19.120;2023-08-21T15:26:27;8.90;;;8.00;;
71566;SDS011;59403;47.456;19.120;2023-08-21T15:28:57;8.65;;;7.30;;
71566;SDS011;59403;47.456;19.120;2023-08-21T15:31:24;7.47;;;6.13;;
71566;SDS011;59403;47.456;19.120;2023-08-21T15:33:56;6.60;;;6.00;;
71566;SDS011;59403;47.456;19.120;2023-08-21T15:36:25;7.60;;;6.90;;
71566;SDS011;59403;47.456;19.120;2023-08-21T15:39:05;8.40;;;7.05;;
71566;SDS011;59403;47.456;19.120;2023-08-21T15:42:03;8.32;;;7.40;;
71566;SDS011;59403;47.456;19.120;2023-08-21T15:47:22;7.90;;;7.10;;
71566;SDS011;59403;47.456;19.120;2023-08-21T15:49:51;8.15;;;7.45;;
71566;SDS011;59403;47.456;19.120;2023-08-21T15:52:22;7.25;;;6.55;;
71566;SDS011;59403;47.456;19.120;2023-08-21T15:54:58;8.20;;;7.45;;
71566;SDS011;59403;47.456;19.120;2023-08-21T15:57:25;8.30;;;7.37;;
71566;SDS011;59403;47.456;19.120;2023-08-21T15:59:58;9.38;;;7.85;;
71566;SDS011;59403;47.456;19.120;2023-08-21T16:02:42;9.27;;;8.38;;
71566;SDS011;59403;47.456;19.120;2023-08-21T16:05:15;8.82;;;8.02;;
71566;SDS011;59403;47.456;19.120;2023-08-21T16:10:39;9.60;;;8.60;;
71566;SDS011;59403;47.456;19.120;2023-08-21T16:13:06;8.98;;;8.07;;
71566;SDS011;59403;47.456;19.120;2023-08-21T16:15:37;9.43;;;8.13;;
71566;SDS011;59403;47.456;19.120;2023-08-21T16:18:04;9.15;;;8.20;;
71566;SDS011;59403;47.456;19.120;2023-08-21T16:20:31;8.98;;;7.47;;
71566;SDS011;59403;47.456;19.120;2023-08-21T16:23:03;8.07;;;7.20;;
71566;SDS011;59403;47.456;19.120;2023-08-21T16:26:16;9.38;;;6.85;;
71566;SDS011;59403;47.456;19.120;2023-08-21T16:28:49;9.30;;;7.72;;